createdAt,value
2014-08-06T00:00:14.277Z,886
2014-08-06T00:00:32.605Z,886
2014-08-06T00:00:50.934Z,886
2014-08-06T00:01:09.264Z,885
2014-08-06T00:01:27.592Z,885
2014-08-06T00:01:45.936Z,885
2014-08-06T00:02:04.266Z,883
2014-08-06T00:02:22.594Z,882
2014-08-06T00:02:40.922Z,883
2014-08-06T00:02:59.252Z,883
2014-08-06T00:03:17.580Z,883
2014-08-06T00:03:35.924Z,887
2014-08-06T00:03:54.254Z,887
2014-08-06T00:04:12.582Z,887
2014-08-06T00:04:30.910Z,886
2014-08-06T00:04:49.238Z,885
2014-08-06T00:05:07.584Z,888
2014-08-06T00:05:25.912Z,889
2014-08-06T00:05:44.240Z,884
2014-08-06T00:06:02.571Z,888
2014-08-06T00:06:20.914Z,885
2014-08-06T00:06:39.242Z,884
2014-08-06T00:06:57.572Z,883
2014-08-06T00:07:15.915Z,884
2014-08-06T00:07:34.243Z,883
2014-08-06T00:07:52.634Z,883
2014-08-06T00:08:10.965Z,886
2014-08-06T00:08:29.309Z,884
2014-08-06T00:08:47.637Z,881
2014-08-06T00:09:05.967Z,884
2014-08-06T00:09:24.295Z,884
2014-08-06T00:09:42.623Z,884
2014-08-06T00:10:00.953Z,880
2014-08-06T00:10:19.296Z,886
2014-08-06T00:10:37.624Z,887
2014-08-06T00:10:55.953Z,886
2014-08-06T00:11:14.284Z,884
2014-08-06T00:11:32.612Z,885
2014-08-06T00:11:50.940Z,884
2014-08-06T00:12:09.270Z,884
2014-08-06T00:12:27.614Z,882
2014-08-06T00:12:45.942Z,881
2014-08-06T00:13:04.272Z,882
2014-08-06T00:13:22.600Z,884
2014-08-06T00:13:40.928Z,883
2014-08-06T00:13:59.256Z,883
2014-08-06T00:14:17.601Z,885
2014-08-06T00:14:35.929Z,879
2014-08-06T00:14:54.257Z,889
2014-08-06T00:15:12.589Z,890
2014-08-06T00:15:30.932Z,887
2014-08-06T00:15:49.260Z,884
2014-08-06T00:16:07.590Z,886
2014-08-06T00:16:25.933Z,884
2014-08-06T00:16:44.261Z,882
2014-08-06T00:17:02.590Z,882
2014-08-06T00:17:21.123Z,885
2014-08-06T00:17:39.248Z,885
2014-08-06T00:17:57.592Z,885
2014-08-06T00:18:15.922Z,884
2014-08-06T00:18:34.250Z,883
2014-08-06T00:18:52.578Z,891
2014-08-06T00:19:10.908Z,891
2014-08-06T00:19:29.236Z,890
2014-08-06T00:19:47.564Z,890
2014-08-06T00:20:05.892Z,890
2014-08-06T00:20:24.222Z,888
2014-08-06T00:20:42.565Z,889
2014-08-06T00:21:00.893Z,888
2014-08-06T00:21:19.224Z,887
2014-08-06T00:21:37.552Z,889
2014-08-06T00:21:55.880Z,890
2014-08-06T00:22:14.211Z,889
2014-08-06T00:22:32.539Z,890
2014-08-06T00:22:50.867Z,891
2014-08-06T00:23:09.211Z,888
2014-08-06T00:23:27.541Z,894
2014-08-06T00:23:45.869Z,893
2014-08-06T00:24:04.197Z,888
2014-08-06T00:24:22.527Z,891
2014-08-06T00:24:40.856Z,889
2014-08-06T00:24:59.199Z,885
2014-08-06T00:25:17.528Z,891
2014-08-06T00:25:35.857Z,893
2014-08-06T00:25:54.185Z,890
2014-08-06T00:26:12.513Z,887
2014-08-06T00:26:30.844Z,889
2014-08-06T00:26:49.172Z,892
2014-08-06T00:27:07.516Z,892
2014-08-06T00:27:25.845Z,891
2014-08-06T00:27:44.173Z,891
2014-08-06T00:28:02.501Z,892
2014-08-06T00:28:20.847Z,892
2014-08-06T00:28:39.175Z,893
2014-08-06T00:28:57.503Z,892
2014-08-06T00:29:15.833Z,890
2014-08-06T00:29:34.161Z,890
2014-08-06T00:29:52.505Z,890
2014-08-06T00:30:10.833Z,890
2014-08-06T00:30:29.163Z,885
2014-08-06T00:30:47.492Z,886
2014-08-06T00:31:05.820Z,888
2014-08-06T00:31:24.150Z,895
2014-08-06T00:31:42.478Z,894
2014-08-06T00:32:00.806Z,891
2014-08-06T00:32:19.152Z,890
2014-08-06T00:32:37.480Z,892
2014-08-06T00:32:55.808Z,890
2014-08-06T00:33:14.136Z,891
2014-08-06T00:33:32.466Z,892
2014-08-06T00:33:50.794Z,892
2014-08-06T00:34:09.326Z,893
2014-08-06T00:34:27.468Z,892
2014-08-06T00:34:45.796Z,892
2014-08-06T00:35:04.125Z,892
2014-08-06T00:35:22.456Z,893
2014-08-06T00:35:40.799Z,893
2014-08-06T00:35:59.128Z,892
2014-08-06T00:36:17.456Z,891
2014-08-06T00:36:35.785Z,891
2014-08-06T00:36:54.129Z,891
2014-08-06T00:37:12.457Z,884
2014-08-06T00:37:30.802Z,891
2014-08-06T00:37:49.131Z,894
2014-08-06T00:38:07.459Z,888
2014-08-06T00:38:25.789Z,889
2014-08-06T00:38:44.117Z,889
2014-08-06T00:39:02.445Z,889
2014-08-06T00:39:20.773Z,889
2014-08-06T00:39:39.119Z,890
2014-08-06T00:39:57.447Z,891
2014-08-06T00:40:15.775Z,891
2014-08-06T00:40:34.105Z,888
2014-08-06T00:40:52.449Z,887
2014-08-06T00:41:10.777Z,887
2014-08-06T00:41:29.107Z,888
2014-08-06T00:41:47.435Z,888
2014-08-06T00:42:05.764Z,888
2014-08-06T00:42:24.092Z,887
2014-08-06T00:42:42.624Z,887
2014-08-06T00:43:00.765Z,886
2014-08-06T00:43:19.093Z,889
2014-08-06T00:43:37.423Z,887
2014-08-06T00:43:55.751Z,886
2014-08-06T00:44:14.079Z,888
2014-08-06T00:44:32.410Z,889
2014-08-06T00:44:50.754Z,892
2014-08-06T00:45:09.082Z,888
2014-08-06T00:45:27.410Z,886
2014-08-06T00:45:45.739Z,889
2014-08-06T00:46:04.067Z,888
2014-08-06T00:46:22.396Z,888
2014-08-06T00:46:40.742Z,885
2014-08-06T00:46:59.070Z,888
2014-08-06T00:47:17.399Z,885
2014-08-06T00:47:35.729Z,889
2014-08-06T00:47:54.057Z,889
2014-08-06T00:48:12.385Z,889
2014-08-06T00:48:30.713Z,890
2014-08-06T00:48:49.058Z,890
2014-08-06T00:49:07.386Z,889
2014-08-06T00:49:25.714Z,889
2014-08-06T00:49:44.044Z,889
2014-08-06T00:50:02.388Z,889
2014-08-06T00:50:20.716Z,890
2014-08-06T00:50:39.063Z,892
2014-08-06T00:50:57.391Z,892
2014-08-06T00:51:15.719Z,892
2014-08-06T00:51:34.047Z,891
2014-08-06T00:51:52.377Z,890
2014-08-06T00:52:10.721Z,890
2014-08-06T00:52:29.049Z,891
2014-08-06T00:52:47.378Z,891
2014-08-06T00:53:05.722Z,891
2014-08-06T00:53:24.050Z,891
2014-08-06T00:53:42.380Z,891
2014-08-06T00:54:00.708Z,891
2014-08-06T00:54:19.037Z,890
2014-08-06T00:54:37.365Z,886
2014-08-06T00:54:55.696Z,888
2014-08-06T00:55:14.024Z,890
2014-08-06T00:55:32.352Z,888
2014-08-06T00:55:50.681Z,895
2014-08-06T00:56:09.228Z,889
2014-08-06T00:56:27.353Z,892
2014-08-06T00:56:45.684Z,892
2014-08-06T00:57:04.012Z,892
2014-08-06T00:57:22.356Z,894
2014-08-06T00:57:40.684Z,890
2014-08-06T00:57:59.013Z,888
2014-08-06T00:58:17.341Z,893
2014-08-06T00:58:35.670Z,893
2014-08-06T00:58:54.015Z,893
2014-08-06T00:59:12.343Z,891
2014-08-06T00:59:30.672Z,894
2014-08-06T00:59:49.015Z,894
2014-08-06T01:00:07.346Z,893
2014-08-06T01:00:25.675Z,894
2014-08-06T01:00:44.003Z,890
2014-08-06T01:01:02.332Z,891
2014-08-06T01:01:20.660Z,893
2014-08-06T01:01:39.004Z,891
2014-08-06T01:01:57.316Z,889
2014-08-06T01:02:15.662Z,895
2014-08-06T01:02:33.990Z,894
2014-08-06T01:02:52.318Z,894
2014-08-06T01:03:10.649Z,894
2014-08-06T01:03:28.993Z,893
2014-08-06T01:03:47.321Z,894
2014-08-06T01:04:05.649Z,894
2014-08-06T01:04:23.979Z,893
2014-08-06T01:04:42.323Z,893
2014-08-06T01:05:00.651Z,893
2014-08-06T01:05:18.980Z,893
2014-08-06T01:05:37.309Z,891
2014-08-06T01:05:55.637Z,891
2014-08-06T01:06:13.965Z,891
2014-08-06T01:06:32.295Z,889
2014-08-06T01:06:50.623Z,888
2014-08-06T01:07:08.967Z,882
2014-08-06T01:07:27.298Z,885
2014-08-06T01:07:45.626Z,883
2014-08-06T01:08:03.954Z,885
2014-08-06T01:08:22.282Z,885
2014-08-06T01:08:40.612Z,888
2014-08-06T01:08:58.941Z,886
2014-08-06T01:09:17.284Z,886
2014-08-06T01:09:35.613Z,885
2014-08-06T01:09:53.942Z,884
2014-08-06T01:10:12.270Z,884
2014-08-06T01:10:30.613Z,882
2014-08-06T01:10:48.929Z,8
2014-08-06T01:11:07.257Z,6
2014-08-06T01:11:25.601Z,118
2014-08-06T01:11:43.931Z,27
2014-08-06T01:12:02.259Z,137
2014-08-06T01:12:20.587Z,142
2014-08-06T01:12:38.915Z,148
2014-08-06T01:12:57.245Z,150
2014-08-06T01:13:15.574Z,152
2014-08-06T01:13:33.917Z,155
2014-08-06T01:13:52.247Z,159
2014-08-06T01:14:10.576Z,158
2014-08-06T01:14:28.904Z,159
2014-08-06T01:14:47.232Z,162
2014-08-06T01:15:05.562Z,148
2014-08-06T01:15:23.890Z,149
2014-08-06T01:15:42.234Z,149
2014-08-06T01:16:00.548Z,149
2014-08-06T01:16:18.892Z,149
2014-08-06T01:16:37.220Z,149
2014-08-06T01:16:55.548Z,149
2014-08-06T01:17:13.878Z,152
2014-08-06T01:17:32.207Z,151
2014-08-06T01:17:50.535Z,152
2014-08-06T01:18:08.865Z,154
2014-08-06T01:18:27.193Z,152
2014-08-06T01:18:45.537Z,153
2014-08-06T01:19:03.865Z,155
2014-08-06T01:19:22.196Z,155
2014-08-06T01:19:40.524Z,155
2014-08-06T01:19:58.852Z,154
2014-08-06T01:20:17.182Z,155
2014-08-06T01:20:35.526Z,155
2014-08-06T01:20:53.854Z,155
2014-08-06T01:21:12.182Z,156
2014-08-06T01:21:30.512Z,156
2014-08-06T01:21:48.856Z,157
2014-08-06T01:22:07.184Z,157
2014-08-06T01:22:25.513Z,156
2014-08-06T01:22:43.842Z,156
2014-08-06T01:23:02.170Z,159
2014-08-06T01:23:20.498Z,159
2014-08-06T01:23:38.838Z,159
2014-08-06T01:23:57.182Z,161
2014-08-06T01:24:15.510Z,160
2014-08-06T01:24:33.881Z,161
2014-08-06T01:24:52.209Z,161
2014-08-06T01:25:10.537Z,161
2014-08-06T01:25:28.865Z,161
2014-08-06T01:25:47.256Z,164
2014-08-06T01:26:05.584Z,166
2014-08-06T01:26:23.912Z,167
2014-08-06T01:26:42.283Z,165
2014-08-06T01:27:00.612Z,164
2014-08-06T01:27:18.955Z,164
2014-08-06T01:27:37.283Z,168
2014-08-06T01:27:55.659Z,168
2014-08-06T01:28:13.987Z,165
2014-08-06T01:28:32.315Z,164
2014-08-06T01:28:50.672Z,164
2014-08-06T01:29:09.000Z,164
2014-08-06T01:29:27.344Z,164
2014-08-06T01:29:45.672Z,165
2014-08-06T01:30:04.018Z,165
2014-08-06T01:30:22.346Z,168
2014-08-06T01:30:40.690Z,169
2014-08-06T01:30:59.035Z,168
2014-08-06T01:31:17.363Z,167
2014-08-06T01:31:35.691Z,168
2014-08-06T01:31:54.019Z,168
2014-08-06T01:32:12.366Z,172
2014-08-06T01:32:30.694Z,172
2014-08-06T01:32:49.037Z,173
2014-08-06T01:33:07.383Z,173
2014-08-06T01:33:25.711Z,176
2014-08-06T01:33:44.039Z,173
2014-08-06T01:34:02.367Z,174
2014-08-06T01:34:20.704Z,173
2014-08-06T01:34:39.032Z,174
2014-08-06T01:34:57.360Z,175
2014-08-06T01:35:15.711Z,172
2014-08-06T01:35:34.039Z,176
2014-08-06T01:35:52.367Z,174
2014-08-06T01:36:10.702Z,177
2014-08-06T01:36:29.031Z,176
2014-08-06T01:36:47.359Z,177
2014-08-06T01:37:05.702Z,178
2014-08-06T01:37:24.038Z,179
2014-08-06T01:37:42.366Z,175
2014-08-06T01:38:00.694Z,174
2014-08-06T01:38:19.031Z,174
2014-08-06T01:38:37.375Z,176
2014-08-06T01:38:55.703Z,176
2014-08-06T01:39:14.035Z,177
2014-08-06T01:39:32.363Z,180
2014-08-06T01:39:50.691Z,178
2014-08-06T01:40:09.019Z,180
2014-08-06T01:40:27.351Z,179
2014-08-06T01:40:45.680Z,181
2014-08-06T01:41:04.008Z,181
2014-08-06T01:41:22.340Z,182
2014-08-06T01:41:40.684Z,180
2014-08-06T01:41:59.012Z,179
2014-08-06T01:42:17.344Z,181
2014-08-06T01:42:35.672Z,180
2014-08-06T01:42:54.016Z,188
2014-08-06T01:43:12.344Z,189
2014-08-06T01:43:30.675Z,186
2014-08-06T01:43:49.019Z,187
2014-08-06T01:44:07.347Z,191
2014-08-06T01:44:25.897Z,192
2014-08-06T01:44:44.022Z,190
2014-08-06T01:45:02.350Z,191
2014-08-06T01:45:20.681Z,195
2014-08-06T01:45:39.009Z,195
2014-08-06T01:45:57.353Z,197
2014-08-06T01:46:15.684Z,192
2014-08-06T01:46:34.012Z,196
2014-08-06T01:46:52.340Z,220
2014-08-06T01:47:10.668Z,226
2014-08-06T01:47:29.014Z,237
2014-08-06T01:47:47.342Z,240
2014-08-06T01:48:05.670Z,235
2014-08-06T01:48:24.001Z,237
2014-08-06T01:48:42.330Z,233
2014-08-06T01:49:00.658Z,230
2014-08-06T01:49:18.988Z,231
2014-08-06T01:49:37.316Z,240
2014-08-06T01:49:55.644Z,117
2014-08-06T01:50:13.988Z,254
2014-08-06T01:50:32.318Z,206
2014-08-06T01:50:50.646Z,212
2014-08-06T01:51:08.974Z,219
2014-08-06T01:51:27.320Z,209
2014-08-06T01:51:45.632Z,223
2014-08-06T01:52:03.961Z,223
2014-08-06T01:52:22.304Z,224
2014-08-06T01:52:40.634Z,225
2014-08-06T01:52:58.963Z,224
2014-08-06T01:53:17.291Z,226
2014-08-06T01:53:35.621Z,227
2014-08-06T01:53:53.949Z,228
2014-08-06T01:54:12.293Z,228
2014-08-06T01:54:30.621Z,225
2014-08-06T01:54:48.951Z,220
2014-08-06T01:55:07.279Z,214
2014-08-06T01:55:25.607Z,215
2014-08-06T01:55:43.937Z,207
2014-08-06T01:56:02.281Z,221
2014-08-06T01:56:20.609Z,228
2014-08-06T01:56:38.937Z,246
2014-08-06T01:56:57.267Z,224
2014-08-06T01:57:15.596Z,214
2014-08-06T01:57:33.924Z,215
2014-08-06T01:57:52.254Z,216
2014-08-06T01:58:10.582Z,235
2014-08-06T01:58:28.910Z,220
2014-08-06T01:58:47.254Z,253
2014-08-06T01:59:05.585Z,260
2014-08-06T01:59:23.913Z,256
2014-08-06T01:59:42.241Z,264
2014-08-06T02:00:00.556Z,265
2014-08-06T02:00:18.899Z,248
2014-08-06T02:00:37.228Z,244
2014-08-06T02:00:55.556Z,241
2014-08-06T02:01:13.885Z,237
2014-08-06T02:01:32.213Z,241
2014-08-06T02:01:50.541Z,240
2014-08-06T02:02:08.871Z,240
2014-08-06T02:02:27.199Z,243
2014-08-06T02:02:45.527Z,240
2014-08-06T02:03:03.856Z,241
2014-08-06T02:03:22.186Z,237
2014-08-06T02:03:40.514Z,206
2014-08-06T02:03:58.842Z,208
2014-08-06T02:04:17.189Z,209
2014-08-06T02:04:35.517Z,206
2014-08-06T02:04:53.845Z,226
2014-08-06T02:05:12.173Z,208
2014-08-06T02:05:30.502Z,246
2014-08-06T02:05:48.846Z,207
2014-08-06T02:06:07.158Z,240
2014-08-06T02:06:25.490Z,206
2014-08-06T02:06:43.818Z,206
2014-08-06T02:07:02.161Z,242
2014-08-06T02:07:20.476Z,205
2014-08-06T02:07:38.804Z,202
2014-08-06T02:07:57.132Z,249
2014-08-06T02:08:15.476Z,203
2014-08-06T02:08:33.790Z,250
2014-08-06T02:08:52.119Z,244
2014-08-06T02:09:10.447Z,245
2014-08-06T02:09:28.777Z,249
2014-08-06T02:09:47.121Z,198
2014-08-06T02:10:05.433Z,252
2014-08-06T02:10:23.761Z,202
2014-08-06T02:10:42.106Z,197
2014-08-06T02:11:00.418Z,194
2014-08-06T02:11:18.747Z,224
2014-08-06T02:11:37.077Z,192
2014-08-06T02:11:55.420Z,188
2014-08-06T02:12:13.749Z,190
2014-08-06T02:12:32.077Z,237
2014-08-06T02:12:50.408Z,188
2014-08-06T02:13:08.736Z,232
2014-08-06T02:13:27.064Z,188
2014-08-06T02:13:45.394Z,234
2014-08-06T02:14:03.722Z,229
2014-08-06T02:14:22.035Z,189
2014-08-06T02:14:40.379Z,250
2014-08-06T02:14:58.709Z,240
2014-08-06T02:15:17.037Z,192
2014-08-06T02:15:35.365Z,193
2014-08-06T02:15:53.695Z,193
2014-08-06T02:16:12.023Z,180
2014-08-06T02:16:30.351Z,192
2014-08-06T02:16:48.679Z,192
2014-08-06T02:17:07.009Z,191
2014-08-06T02:17:25.337Z,193
2014-08-06T02:17:43.665Z,185
2014-08-06T02:18:01.996Z,186
2014-08-06T02:18:20.340Z,240
2014-08-06T02:18:38.668Z,242
2014-08-06T02:18:56.998Z,187
2014-08-06T02:19:15.326Z,189
2014-08-06T02:19:33.654Z,188
2014-08-06T02:19:51.998Z,245
2014-08-06T02:20:10.328Z,186
2014-08-06T02:20:28.656Z,219
2014-08-06T02:20:46.984Z,187
2014-08-06T02:21:05.313Z,218
2014-08-06T02:21:23.642Z,218
2014-08-06T02:21:41.970Z,225
2014-08-06T02:22:00.301Z,193
2014-08-06T02:22:18.629Z,192
2014-08-06T02:22:36.957Z,194
2014-08-06T02:22:55.285Z,206
2014-08-06T02:23:13.615Z,196
2014-08-06T02:23:31.943Z,191
2014-08-06T02:23:50.272Z,197
2014-08-06T02:24:08.601Z,190
2014-08-06T02:24:26.929Z,193
2014-08-06T02:24:45.257Z,193
2014-08-06T02:25:03.587Z,195
2014-08-06T02:25:21.915Z,194
2014-08-06T02:25:40.243Z,226
2014-08-06T02:25:58.571Z,197
2014-08-06T02:26:16.917Z,194
2014-08-06T02:26:35.245Z,201
2014-08-06T02:26:53.573Z,234
2014-08-06T02:27:11.904Z,192
2014-08-06T02:27:30.232Z,196
2014-08-06T02:27:48.575Z,197
2014-08-06T02:28:06.907Z,196
2014-08-06T02:28:25.235Z,196
2014-08-06T02:28:43.563Z,195
2014-08-06T02:29:01.892Z,194
2014-08-06T02:29:20.220Z,216
2014-08-06T02:29:38.548Z,196
2014-08-06T02:29:56.876Z,196
2014-08-06T02:30:15.206Z,198
2014-08-06T02:30:33.519Z,199
2014-08-06T02:30:51.847Z,198
2014-08-06T02:31:10.177Z,199
2014-08-06T02:31:28.505Z,200
2014-08-06T02:31:46.833Z,196
2014-08-06T02:32:05.165Z,194
2014-08-06T02:32:23.508Z,193
2014-08-06T02:32:41.836Z,196
2014-08-06T02:33:00.165Z,196
2014-08-06T02:33:18.681Z,196
2014-08-06T02:33:36.822Z,196
2014-08-06T02:33:55.134Z,198
2014-08-06T02:34:13.480Z,197
2014-08-06T02:34:31.808Z,196
2014-08-06T02:34:50.136Z,196
2014-08-06T02:35:08.451Z,194
2014-08-06T02:35:26.795Z,197
2014-08-06T02:35:45.107Z,197
2014-08-06T02:36:03.654Z,192
2014-08-06T02:36:21.781Z,195
2014-08-06T02:36:40.109Z,197
2014-08-06T02:36:58.453Z,195
2014-08-06T02:37:16.752Z,198
2014-08-06T02:37:35.111Z,198
2014-08-06T02:37:53.439Z,193
2014-08-06T02:38:11.769Z,194
2014-08-06T02:38:30.097Z,194
2014-08-06T02:38:48.426Z,194
2014-08-06T02:39:06.769Z,195
2014-08-06T02:39:25.099Z,194
2014-08-06T02:39:43.412Z,189
2014-08-06T02:40:01.756Z,185
2014-08-06T02:40:20.085Z,189
2014-08-06T02:40:38.413Z,191
2014-08-06T02:40:56.757Z,183
2014-08-06T02:41:15.088Z,186
2014-08-06T02:41:33.416Z,186
2014-08-06T02:41:51.744Z,169
2014-08-06T02:42:10.072Z,186
2014-08-06T02:42:28.402Z,194
2014-08-06T02:42:46.699Z,188
2014-08-06T02:43:05.059Z,194
2014-08-06T02:43:23.389Z,180
2014-08-06T02:43:41.717Z,189
2014-08-06T02:44:00.045Z,188
2014-08-06T02:44:18.391Z,190
2014-08-06T02:44:36.719Z,193
2014-08-06T02:44:55.047Z,191
2014-08-06T02:45:13.375Z,190
2014-08-06T02:45:31.704Z,191
2014-08-06T02:45:50.032Z,193
2014-08-06T02:46:08.376Z,195
2014-08-06T02:46:26.706Z,189
2014-08-06T02:46:45.034Z,189
2014-08-06T02:47:03.362Z,191
2014-08-06T02:47:21.693Z,192
2014-08-06T02:47:40.036Z,191
2014-08-06T02:47:58.552Z,193
2014-08-06T02:48:16.693Z,192
2014-08-06T02:48:35.008Z,193
2014-08-06T02:48:53.352Z,189
2014-08-06T02:49:11.680Z,196
2014-08-06T02:49:30.009Z,195
2014-08-06T02:49:48.337Z,221
2014-08-06T02:50:06.665Z,199
2014-08-06T02:50:24.996Z,200
2014-08-06T02:50:43.325Z,201
2014-08-06T02:51:01.621Z,201
2014-08-06T02:51:19.996Z,202
2014-08-06T02:51:38.327Z,201
2014-08-06T02:51:56.655Z,202
2014-08-06T02:52:14.983Z,200
2014-08-06T02:52:33.312Z,202
2014-08-06T02:52:51.640Z,226
2014-08-06T02:53:09.968Z,202
2014-08-06T02:53:28.298Z,202
2014-08-06T02:53:46.626Z,202
2014-08-06T02:54:04.955Z,202
2014-08-06T02:54:23.283Z,221
2014-08-06T02:54:41.628Z,201
2014-08-06T02:54:59.957Z,202
2014-08-06T02:55:18.285Z,198
2014-08-06T02:55:36.630Z,200
2014-08-06T02:55:54.959Z,200
2014-08-06T02:56:13.287Z,199
2014-08-06T02:56:31.617Z,199
2014-08-06T02:56:49.914Z,200
2014-08-06T02:57:08.476Z,201
2014-08-06T02:57:26.820Z,201
2014-08-06T02:57:45.150Z,201
2014-08-06T02:58:03.478Z,201
2014-08-06T02:58:21.806Z,197
2014-08-06T02:58:40.136Z,194
2014-08-06T02:58:58.480Z,195
2014-08-06T02:59:16.808Z,198
2014-08-06T02:59:35.137Z,189
2014-08-06T02:59:53.466Z,196
2014-08-06T03:00:11.794Z,201
2014-08-06T03:00:30.325Z,198
2014-08-06T03:00:48.453Z,197
2014-08-06T03:01:06.781Z,199
2014-08-06T03:01:25.125Z,201
2014-08-06T03:01:43.454Z,194
2014-08-06T03:02:01.782Z,214
2014-08-06T03:02:20.110Z,198
2014-08-06T03:02:38.441Z,216
2014-08-06T03:02:56.769Z,199
2014-08-06T03:03:15.098Z,196
2014-08-06T03:03:33.427Z,200
2014-08-06T03:03:51.755Z,198
2014-08-06T03:04:10.083Z,202
2014-08-06T03:04:28.411Z,201
2014-08-06T03:04:46.757Z,199
2014-08-06T03:05:05.085Z,213
2014-08-06T03:05:23.366Z,197
2014-08-06T03:05:41.743Z,195
2014-08-06T03:06:00.071Z,207
2014-08-06T03:06:18.399Z,216
2014-08-06T03:06:36.746Z,217
2014-08-06T03:06:55.074Z,218
2014-08-06T03:07:13.402Z,194
2014-08-06T03:07:31.731Z,194
2014-08-06T03:07:50.076Z,217
2014-08-06T03:08:08.404Z,208
2014-08-06T03:08:26.733Z,202
2014-08-06T03:08:45.063Z,202
2014-08-06T03:09:03.391Z,202
2014-08-06T03:09:21.735Z,203
2014-08-06T03:09:40.065Z,201
2014-08-06T03:09:58.393Z,202
2014-08-06T03:10:16.721Z,220
2014-08-06T03:10:35.049Z,202
2014-08-06T03:10:53.378Z,202
2014-08-06T03:11:11.894Z,203
2014-08-06T03:11:30.253Z,224
2014-08-06T03:11:48.583Z,201
2014-08-06T03:12:06.927Z,200
2014-08-06T03:12:25.255Z,222
2014-08-06T03:12:43.585Z,220
2014-08-06T03:13:01.882Z,200
2014-08-06T03:13:20.210Z,201
2014-08-06T03:13:38.570Z,198
2014-08-06T03:13:56.869Z,216
2014-08-06T03:14:15.244Z,197
2014-08-06T03:14:33.572Z,215
2014-08-06T03:14:51.902Z,212
2014-08-06T03:15:10.230Z,213
2014-08-06T03:15:28.558Z,210
2014-08-06T03:15:46.888Z,214
2014-08-06T03:16:05.232Z,209
2014-08-06T03:16:23.560Z,210
2014-08-06T03:16:41.888Z,226
2014-08-06T03:17:00.218Z,186
2014-08-06T03:17:18.546Z,192
2014-08-06T03:17:36.875Z,191
2014-08-06T03:17:55.205Z,218
2014-08-06T03:18:13.533Z,214
2014-08-06T03:18:31.861Z,225
2014-08-06T03:18:50.207Z,194
2014-08-06T03:19:08.535Z,195
2014-08-06T03:19:26.863Z,190
2014-08-06T03:19:45.191Z,188
2014-08-06T03:20:03.521Z,191
2014-08-06T03:20:21.849Z,186
2014-08-06T03:20:40.177Z,186
2014-08-06T03:20:58.523Z,190
2014-08-06T03:21:16.851Z,190
2014-08-06T03:21:35.164Z,188
2014-08-06T03:21:53.510Z,181
2014-08-06T03:22:11.838Z,190
2014-08-06T03:22:30.181Z,183
2014-08-06T03:22:48.510Z,196
2014-08-06T03:23:06.839Z,203
2014-08-06T03:23:25.167Z,195
2014-08-06T03:23:43.495Z,199
2014-08-06T03:24:01.825Z,204
2014-08-06T03:24:20.153Z,209
2014-08-06T03:24:38.481Z,214
2014-08-06T03:24:56.811Z,219
2014-08-06T03:25:15.155Z,224
2014-08-06T03:25:33.483Z,229
2014-08-06T03:25:51.811Z,234
2014-08-06T03:26:10.143Z,240
2014-08-06T03:26:28.471Z,245
2014-08-06T03:26:46.799Z,250
2014-08-06T03:27:05.128Z,255
2014-08-06T03:27:23.456Z,260
2014-08-06T03:27:41.800Z,265
2014-08-06T03:28:00.131Z,270
2014-08-06T03:28:18.459Z,274
2014-08-06T03:28:36.787Z,279
2014-08-06T03:28:55.115Z,284
2014-08-06T03:29:13.460Z,288
2014-08-06T03:29:31.788Z,292
2014-08-06T03:29:50.116Z,296
2014-08-06T03:30:08.432Z,300
2014-08-06T03:30:26.776Z,304
2014-08-06T03:30:45.104Z,307
2014-08-06T03:31:03.432Z,311
2014-08-06T03:31:21.778Z,314
2014-08-06T03:31:40.106Z,317
2014-08-06T03:31:58.434Z,320
2014-08-06T03:32:16.936Z,323
2014-08-06T03:32:35.264Z,326
2014-08-06T03:32:53.592Z,329
2014-08-06T03:33:11.936Z,332
2014-08-06T03:33:30.266Z,334
2014-08-06T03:33:48.594Z,337
2014-08-06T03:34:06.922Z,339
2014-08-06T03:34:25.252Z,342
2014-08-06T03:34:43.580Z,344
2014-08-06T03:35:01.909Z,346
2014-08-06T03:35:20.237Z,349
2014-08-06T03:35:38.567Z,351
2014-08-06T03:35:56.926Z,353
2014-08-06T03:36:15.223Z,358
2014-08-06T03:36:33.569Z,357
2014-08-06T03:36:51.897Z,359
2014-08-06T03:37:10.225Z,369
2014-08-06T03:37:28.553Z,371
2014-08-06T03:37:46.899Z,373
2014-08-06T03:38:05.227Z,376
2014-08-06T03:38:23.540Z,378
2014-08-06T03:38:41.885Z,380
2014-08-06T03:39:00.213Z,383
2014-08-06T03:39:18.542Z,385
2014-08-06T03:39:36.870Z,387
2014-08-06T03:39:55.200Z,390
2014-08-06T03:40:13.528Z,392
2014-08-06T03:40:31.856Z,394
2014-08-06T03:40:50.202Z,396
2014-08-06T03:41:08.530Z,398
2014-08-06T03:41:26.858Z,400
2014-08-06T03:41:45.186Z,402
2014-08-06T03:42:03.516Z,404
2014-08-06T03:42:21.844Z,406
2014-08-06T03:42:40.173Z,408
2014-08-06T03:42:58.518Z,411
2014-08-06T03:43:16.846Z,414
2014-08-06T03:43:35.175Z,417
2014-08-06T03:43:53.503Z,420
2014-08-06T03:44:11.833Z,423
2014-08-06T03:44:30.161Z,426
2014-08-06T03:44:48.505Z,428
2014-08-06T03:45:06.835Z,431
2014-08-06T03:45:25.163Z,433
2014-08-06T03:45:43.491Z,435
2014-08-06T03:46:01.819Z,438
2014-08-06T03:46:20.149Z,440
2014-08-06T03:46:38.477Z,442
2014-08-06T03:46:56.806Z,445
2014-08-06T03:47:15.136Z,448
2014-08-06T03:47:33.464Z,450
2014-08-06T03:47:51.808Z,453
2014-08-06T03:48:10.323Z,456
2014-08-06T03:48:28.467Z,459
2014-08-06T03:48:46.795Z,462
2014-08-06T03:49:05.123Z,464
2014-08-06T03:49:23.469Z,467
2014-08-06T03:49:41.797Z,469
2014-08-06T03:50:00.125Z,472
2014-08-06T03:50:18.453Z,474
2014-08-06T03:50:36.783Z,476
2014-08-06T03:50:55.111Z,478
2014-08-06T03:51:13.440Z,481
2014-08-06T03:51:31.785Z,483
2014-08-06T03:51:50.113Z,486
2014-08-06T03:52:08.442Z,488
2014-08-06T03:52:26.770Z,491
2014-08-06T03:52:45.100Z,494
2014-08-06T03:53:03.444Z,497
2014-08-06T03:53:21.772Z,499
2014-08-06T03:53:40.102Z,502
2014-08-06T03:53:58.430Z,505
2014-08-06T03:54:16.758Z,508
2014-08-06T03:54:35.086Z,511
2014-08-06T03:54:53.416Z,514
2014-08-06T03:55:11.760Z,517
2014-08-06T03:55:30.088Z,520
2014-08-06T03:55:48.418Z,523
2014-08-06T03:56:06.746Z,526
2014-08-06T03:56:25.075Z,529
2014-08-06T03:56:43.403Z,532
2014-08-06T03:57:01.733Z,535
2014-08-06T03:57:20.077Z,538
2014-08-06T03:57:38.405Z,541
2014-08-06T03:57:56.734Z,544
2014-08-06T03:58:15.062Z,546
2014-08-06T03:58:33.390Z,549
2014-08-06T03:58:51.734Z,552
2014-08-06T03:59:10.064Z,555
2014-08-06T03:59:28.392Z,558
2014-08-06T03:59:46.720Z,560
2014-08-06T04:00:05.051Z,563
2014-08-06T04:00:23.379Z,565
2014-08-06T04:00:41.723Z,567
2014-08-06T04:01:00.052Z,569
2014-08-06T04:01:18.380Z,571
2014-08-06T04:01:36.740Z,573
2014-08-06T04:01:55.068Z,575
2014-08-06T04:02:13.399Z,577
2014-08-06T04:02:31.727Z,579
2014-08-06T04:02:50.055Z,581
2014-08-06T04:03:08.401Z,583
2014-08-06T04:03:26.729Z,585
2014-08-06T04:03:45.073Z,587
2014-08-06T04:04:03.403Z,589
2014-08-06T04:04:21.731Z,590
2014-08-06T04:04:40.059Z,592
2014-08-06T04:04:58.372Z,593
2014-08-06T04:05:16.717Z,594
2014-08-06T04:05:35.045Z,596
2014-08-06T04:05:53.373Z,597
2014-08-06T04:06:11.719Z,599
2014-08-06T04:06:30.047Z,601
2014-08-06T04:06:48.375Z,603
2014-08-06T04:07:06.705Z,606
2014-08-06T04:07:25.033Z,608
2014-08-06T04:07:43.361Z,609
2014-08-06T04:08:01.705Z,611
2014-08-06T04:08:20.035Z,613
2014-08-06T04:08:38.363Z,615
2014-08-06T04:08:56.707Z,617
2014-08-06T04:09:15.038Z,619
2014-08-06T04:09:33.366Z,621
2014-08-06T04:09:51.694Z,622
2014-08-06T04:10:10.023Z,624
2014-08-06T04:10:28.352Z,626
2014-08-06T04:10:46.695Z,628
2014-08-06T04:11:05.025Z,630
2014-08-06T04:11:23.354Z,632
2014-08-06T04:11:41.682Z,635
2014-08-06T04:12:00.010Z,637
2014-08-06T04:12:18.340Z,640
2014-08-06T04:12:36.668Z,642